createdAt,value
2023-05-05T00:00:47.213Z,88823.13
2023-05-05T00:03:32.531Z,88827.16
2023-05-05T00:06:17.403Z,88831.16
2023-05-05T00:09:02.662Z,88829.22
2023-05-05T00:11:47.600Z,88824.88
2023-05-05T00:14:32.574Z,88822.78
2023-05-05T00:17:17.906Z,88822.78
2023-05-05T00:20:02.881Z,88822.63
2023-05-05T00:22:48.083Z,88826.84
2023-05-05T00:25:33.127Z,88827.06
2023-05-05T00:28:18.188Z,88828.13
2023-05-05T00:31:03.253Z,88826.69
2023-05-05T00:33:48.104Z,88831.47
2023-05-05T00:36:33.109Z,88832.00
2023-05-05T00:39:17.971Z,88829.75
2023-05-05T00:42:02.990Z,88824.31
2023-05-05T00:44:47.881Z,88827.47
2023-05-05T00:47:33.021Z,88831.84
2023-05-05T00:50:18.009Z,88826.09
2023-05-05T00:53:03.029Z,88823.66
2023-05-05T00:55:48.092Z,88820.84
2023-05-05T00:58:33.128Z,88825.94
2023-05-05T01:01:18.038Z,88822.59
2023-05-05T01:04:03.046Z,88819.13
2023-05-05T01:06:48.019Z,88817.00
2023-05-05T01:09:32.841Z,88813.19
2023-05-05T01:12:18.054Z,88807.22
2023-05-05T01:15:02.893Z,88807.56
2023-05-05T01:17:47.858Z,88809.34
2023-05-05T01:20:32.828Z,88807.94
2023-05-05T01:23:17.682Z,88810.56
2023-05-05T01:26:02.840Z,88807.59
2023-05-05T01:28:47.677Z,88804.63
2023-05-05T01:31:32.849Z,88807.78
2023-05-05T01:34:17.595Z,88803.06
2023-05-05T01:37:02.598Z,88804.28
2023-05-05T01:39:47.526Z,88804.28
2023-05-05T01:42:32.592Z,88797.47
2023-05-05T01:45:17.824Z,88801.31
2023-05-05T01:48:02.915Z,88799.94
2023-05-05T01:50:47.876Z,88791.56
2023-05-05T01:53:32.759Z,88791.91
2023-05-05T01:56:17.896Z,88787.91
2023-05-05T01:59:02.840Z,88788.25
2023-05-05T02:01:48.040Z,88792.81
2023-05-05T02:04:32.970Z,88788.97
2023-05-05T02:07:18.048Z,88786.19
2023-05-05T02:10:03.119Z,88790.91
2023-05-05T02:12:47.980Z,88783.56
2023-05-05T02:15:33.087Z,88789.16
2023-05-05T02:18:18.108Z,88783.56
2023-05-05T02:21:03.185Z,88781.13
2023-05-05T02:23:48.123Z,88787.25
2023-05-05T02:26:33.215Z,88785.16
2023-05-05T02:29:18.375Z,88791.81
2023-05-05T02:32:03.290Z,88788.66
2023-05-05T02:34:48.308Z,88788.13
2023-05-05T02:37:33.138Z,88789.53
2023-05-05T02:40:18.188Z,88787.78
2023-05-05T02:43:03.117Z,88786.06
2023-05-05T02:45:48.122Z,88781.13
2023-05-05T02:48:33.055Z,88792.69
2023-05-05T02:51:18.051Z,88788.50
2023-05-05T02:54:03.004Z,88783.78
2023-05-05T02:56:47.858Z,88790.59
2023-05-05T02:59:32.920Z,88780.47
2023-05-05T03:02:17.789Z,88790.38
2023-05-05T03:05:02.865Z,88784.97
2023-05-05T03:07:47.725Z,88785.84
2023-05-05T03:10:32.870Z,88780.25
2023-05-05T03:13:17.827Z,88779.38
2023-05-05T03:16:03.001Z,88781.31
2023-05-05T03:18:48.060Z,88767.31
2023-05-05T03:21:32.955Z,88771.16
2023-05-05T03:24:17.918Z,88766.63
2023-05-05T03:27:02.790Z,88776.41
2023-05-05T03:29:47.793Z,88772.22
2023-05-05T03:32:32.754Z,88775.34
2023-05-05T03:35:17.632Z,88773.06
2023-05-05T03:38:02.542Z,88774.50
2023-05-05T03:40:47.463Z,88766.44
2023-05-05T03:43:32.565Z,88766.63
2023-05-05T03:46:17.525Z,88761.91
2023-05-05T03:49:02.612Z,88762.44
2023-05-05T03:51:47.451Z,88757.72
2023-05-05T03:54:32.554Z,88751.59
2023-05-05T03:57:17.528Z,88755.25
2023-05-05T04:00:02.629Z,88756.31
2023-05-05T04:02:47.780Z,88748.97
2023-05-05T04:05:32.839Z,88755.09
2023-05-05T04:08:17.810Z,88756.13
2023-05-05T04:11:02.739Z,88762.44
2023-05-05T04:13:47.711Z,88761.22
2023-05-05T04:16:32.623Z,88759.97
2023-05-05T04:19:17.648Z,88773.75
2023-05-05T04:22:02.546Z,88765.91
2023-05-05T04:24:47.546Z,88766.94
2023-05-05T04:27:32.643Z,88768.88
2023-05-05T04:30:17.561Z,88770.44
2023-05-05T04:33:02.626Z,88772.03
2023-05-05T04:35:47.615Z,88770.63
2023-05-05T04:38:32.891Z,88771.34
2023-05-05T04:41:17.736Z,88782.38
2023-05-05T04:44:02.621Z,88781.16
2023-05-05T04:46:47.591Z,88776.09
2023-05-05T04:49:32.612Z,88775.38
2023-05-05T04:52:17.718Z,88769.59
2023-05-05T04:55:03.679Z,88775.56
2023-05-05T04:57:48.560Z,88776.41
2023-05-05T05:00:33.570Z,88777.28
2023-05-05T05:03:18.613Z,88777.78
2023-05-05T05:06:03.400Z,88780.06
2023-05-05T05:08:48.320Z,88784.06
2023-05-05T05:11:33.425Z,88780.22
2023-05-05T05:14:18.304Z,88778.44
2023-05-05T05:17:03.348Z,88778.97
2023-05-05T05:19:48.370Z,88775.09
2023-05-05T05:22:33.331Z,88778.22
2023-05-05T05:25:18.262Z,88781.41
2023-05-05T05:28:10.284Z,88781.72
2023-05-05T05:30:56.121Z,88779.59
2023-05-05T05:33:41.149Z,88775.00
2023-05-05T05:36:25.980Z,88779.28
2023-05-05T05:39:11.017Z,88783.25
2023-05-05T05:41:55.956Z,88774.19
2023-05-05T05:44:41.069Z,88785.56
2023-05-05T05:47:26.004Z,88785.63
2023-05-05T05:50:11.262Z,88793.44
2023-05-05T05:52:55.999Z,88790.03
2023-05-05T05:55:41.077Z,88789.41
2023-05-05T05:58:26.089Z,88796.03
2023-05-05T06:01:11.034Z,88787.63
2023-05-05T06:03:56.111Z,88792.69
2023-05-05T06:06:40.918Z,88784.97
2023-05-05T06:09:26.096Z,88792.47
2023-05-05T06:12:11.053Z,88794.44
2023-05-05T06:14:56.127Z,88791.38
2023-05-05T06:17:41.044Z,88792.16
2023-05-05T06:20:25.768Z,88794.25
2023-05-05T06:23:10.799Z,88788.44
2023-05-05T06:25:55.796Z,88787.22
2023-05-05T06:28:40.803Z,88789.84
2023-05-05T06:31:25.684Z,88790.88
2023-05-05T06:34:10.701Z,88794.88
2023-05-05T06:36:55.645Z,88793.63
2023-05-05T06:39:40.515Z,88786.50
2023-05-05T06:42:25.469Z,88791.22
2023-05-05T06:45:10.124Z,88785.56
2023-05-05T06:47:55.073Z,88796.31
2023-05-05T06:50:39.910Z,88790.66
2023-05-05T06:53:24.956Z,88787.34
2023-05-05T06:56:09.679Z,88790.13
2023-05-05T06:58:54.699Z,88779.00
2023-05-05T07:01:39.544Z,88789.50
2023-05-05T07:04:24.616Z,88787.94
2023-05-05T07:07:09.427Z,88786.22
2023-05-05T07:09:54.452Z,88791.81
2023-05-05T07:12:39.417Z,88778.50
2023-05-05T07:15:29.359Z,88788.34
2023-05-05T07:18:14.757Z,88774.25
2023-05-05T07:20:59.957Z,88781.53
2023-05-05T07:23:44.839Z,88781.44
2023-05-05T07:26:29.909Z,88779.22
2023-05-05T07:29:14.805Z,88777.44
2023-05-05T07:31:59.913Z,88773.53
2023-05-05T07:34:44.660Z,88775.22
2023-05-05T07:37:29.839Z,88775.78
2023-05-05T07:40:14.874Z,88779.31
2023-05-05T07:42:59.853Z,88771.50
2023-05-05T07:45:44.893Z,88764.38
2023-05-05T07:48:29.795Z,88763.25
2023-05-05T07:51:14.878Z,88768.13
2023-05-05T07:53:59.822Z,88758.66
2023-05-05T07:56:44.780Z,88756.03
2023-05-05T07:59:29.676Z,88754.88
2023-05-05T08:02:14.725Z,88747.38
2023-05-05T08:04:59.836Z,88753.97
2023-05-05T08:07:44.780Z,88753.25
2023-05-05T08:10:29.883Z,88747.34
2023-05-05T08:13:14.940Z,88749.00
2023-05-05T08:16:00.010Z,88743.06
2023-05-05T08:18:45.006Z,88746.09
2023-05-05T08:21:30.215Z,88745.00
2023-05-05T08:24:15.329Z,88741.91
2023-05-05T08:27:00.346Z,88742.31
2023-05-05T08:29:45.539Z,88736.31
2023-05-05T08:32:30.521Z,88727.03
2023-05-05T08:35:15.692Z,88729.84
2023-05-05T08:38:00.507Z,88725.84
2023-05-05T08:40:45.592Z,88716.34
2023-05-05T08:43:30.705Z,88722.13
2023-05-05T08:46:15.632Z,88714.25
2023-05-05T08:49:00.609Z,88723.91
2023-05-05T08:51:45.539Z,88720.31
2023-05-05T08:54:30.747Z,88722.28
2023-05-05T08:57:15.564Z,88720.47
2023-05-05T09:00:00.779Z,88713.16
2023-05-05T09:02:45.848Z,88716.00
2023-05-05T09:05:30.733Z,88721.25
2023-05-05T09:08:15.804Z,88716.94
2023-05-05T09:11:00.887Z,88718.34
2023-05-05T09:13:46.142Z,88718.88
2023-05-05T09:16:31.079Z,88712.16
2023-05-05T09:19:16.007Z,88713.44
2023-05-05T09:22:01.002Z,88709.09
2023-05-05T09:24:46.056Z,88711.44
2023-05-05T09:27:31.072Z,88707.22
2023-05-05T09:30:15.885Z,88708.00
2023-05-05T09:33:01.114Z,88707.97
2023-05-05T09:35:46.109Z,88698.88
2023-05-05T09:38:31.224Z,88702.88
2023-05-05T09:41:16.148Z,88694.50
2023-05-05T09:44:01.206Z,88696.34
2023-05-05T09:46:46.229Z,88697.31
2023-05-05T09:49:31.240Z,88695.84
2023-05-05T09:52:16.299Z,88690.97
2023-05-05T09:55:01.679Z,88684.53
2023-05-05T09:57:46.812Z,88676.91
2023-05-05T10:00:31.761Z,88684.97
2023-05-05T10:03:16.895Z,88684.84
2023-05-05T10:06:02.015Z,88674.59
2023-05-05T10:08:46.861Z,88676.22
2023-05-05T10:11:31.867Z,88674.50
2023-05-05T10:14:16.803Z,88666.09
2023-05-05T10:17:02.007Z,88669.16
2023-05-05T10:19:46.951Z,88661.81
2023-05-05T10:22:31.982Z,88663.84
2023-05-05T10:25:16.998Z,88658.16
2023-05-05T10:28:02.134Z,88664.34
2023-05-05T10:30:47.011Z,88660.53
2023-05-05T10:33:32.580Z,88659.88
2023-05-05T10:36:17.576Z,88665.50
2023-05-05T10:39:02.471Z,88652.16
2023-05-05T10:41:47.483Z,88652.91
2023-05-05T10:44:32.510Z,88659.06
2023-05-05T10:47:17.558Z,88645.75
2023-05-05T10:50:02.478Z,88647.16
2023-05-05T10:52:47.579Z,88651.22
2023-05-05T10:55:32.464Z,88640.69
2023-05-05T10:58:17.533Z,88641.50
2023-05-05T11:01:02.655Z,88636.38
2023-05-05T11:03:47.608Z,88638.13
2023-05-05T11:06:32.720Z,88636.91
2023-05-05T11:09:17.623Z,88633.03
2023-05-05T11:12:02.504Z,88628.00
2023-05-05T11:14:47.431Z,88627.72
2023-05-05T11:17:32.565Z,88627.16
2023-05-05T11:20:17.570Z,88620.41
2023-05-05T11:23:02.560Z,88621.00
2023-05-05T11:25:47.641Z,88619.75
2023-05-05T11:28:32.577Z,88613.91
2023-05-05T11:31:17.716Z,88619.47
2023-05-05T11:34:02.609Z,88615.09
2023-05-05T11:36:47.614Z,88612.56
2023-05-05T11:39:32.545Z,88612.72
2023-05-05T11:42:17.661Z,88616.28
2023-05-05T11:45:02.713Z,88604.25
2023-05-05T11:47:47.724Z,88603.72
2023-05-05T11:50:32.726Z,88606.47
2023-05-05T11:53:17.696Z,88602.09
2023-05-05T11:56:02.740Z,88600.50
2023-05-05T11:58:47.657Z,88603.06
2023-05-05T12:01:32.843Z,88596.63
2023-05-05T12:04:18.082Z,88604.56
2023-05-05T12:07:02.895Z,88602.56
2023-05-05T12:09:47.864Z,88600.41
2023-05-05T12:12:32.926Z,88598.56
2023-05-05T12:15:18.190Z,88599.94
2023-05-05T12:18:03.483Z,88595.97
2023-05-05T12:20:48.488Z,88598.25
2023-05-05T12:23:33.348Z,88595.41
2023-05-05T12:26:18.396Z,88591.66
2023-05-05T12:29:03.519Z,88591.34
2023-05-05T12:31:48.579Z,88589.78
2023-05-05T12:34:33.675Z,88586.78
2023-05-05T12:37:18.496Z,88586.97
2023-05-05T12:40:03.503Z,88581.09
2023-05-05T12:42:48.462Z,88579.63
2023-05-05T12:45:33.539Z,88580.19
2023-05-05T12:48:18.519Z,88576.16
2023-05-05T12:51:03.659Z,88574.19
2023-05-05T12:53:48.699Z,88569.53
2023-05-05T12:56:33.576Z,88567.78
2023-05-05T12:59:18.675Z,88562.00
2023-05-05T13:02:03.697Z,88557.78
2023-05-05T13:04:48.697Z,88555.38
2023-05-05T13:07:33.736Z,88548.84
2023-05-05T13:10:18.840Z,88544.16
2023-05-05T13:13:03.910Z,88544.41
2023-05-05T13:15:48.816Z,88540.47
2023-05-05T13:18:33.830Z,88542.44
2023-05-05T13:21:18.671Z,88536.16
2023-05-05T13:26:51.863Z,88531.16
2023-05-05T13:29:36.761Z,88529.38
2023-05-05T13:32:21.796Z,88529.88
2023-05-05T13:35:06.692Z,88526.19
2023-05-05T13:37:51.597Z,88529.06
2023-05-05T13:40:36.482Z,88526.34
2023-05-05T13:43:21.611Z,88522.13
2023-05-05T13:46:18.761Z,88520.38
2023-05-05T13:49:04.624Z,88515.19
2023-05-05T13:51:49.543Z,88511.22
2023-05-05T13:54:34.626Z,88509.16
2023-05-05T13:57:19.702Z,88511.34
2023-05-05T14:00:04.718Z,88508.56
2023-05-05T14:02:49.962Z,88510.84
2023-05-05T14:05:34.811Z,88508.38
2023-05-05T14:08:19.937Z,88506.22
2023-05-05T14:11:04.968Z,88498.03
2023-05-05T14:13:50.032Z,88488.69
2023-05-05T14:16:35.126Z,88493.22
2023-05-05T14:19:19.836Z,88500.72
2023-05-05T14:22:04.936Z,88497.56
2023-05-05T14:24:49.900Z,88504.94
2023-05-05T14:27:34.999Z,88495.97
2023-05-05T14:30:19.903Z,88497.38
2023-05-05T14:33:04.987Z,88490.44
2023-05-05T14:35:49.824Z,88497.38
2023-05-05T14:38:35.030Z,88497.53
2023-05-05T14:41:20.111Z,88502.75
2023-05-05T14:44:04.986Z,88500.09
2023-05-05T14:46:51.114Z,88519.31
2023-05-05T14:49:35.929Z,88489.28
2023-05-05T14:52:21.032Z,88506.06
2023-05-05T14:55:06.186Z,88495.53
2023-05-05T14:57:51.136Z,88503.84
2023-05-05T15:00:36.168Z,88503.78
2023-05-05T15:03:21.198Z,88503.31
2023-05-05T15:06:06.074Z,88506.03
2023-05-05T15:08:50.977Z,88503.03
2023-05-05T15:11:36.156Z,88505.81
2023-05-05T15:14:21.127Z,88509.31
2023-05-05T15:17:06.349Z,88500.69
2023-05-05T15:19:51.246Z,88495.78
2023-05-05T15:22:36.284Z,88501.72
2023-05-05T15:25:21.316Z,88498.16
2023-05-05T15:28:06.331Z,88510.34
2023-05-05T15:30:51.346Z,88509.16
2023-05-05T15:33:36.283Z,88504.03
2023-05-05T15:36:21.263Z,88504.16
2023-05-05T15:39:06.229Z,88505.91
2023-05-05T15:41:51.362Z,88507.66
2023-05-05T15:44:36.284Z,88510.00
2023-05-05T15:47:21.236Z,88509.88
2023-05-05T15:50:06.364Z,88509.84
2023-05-05T15:52:51.342Z,88504.38
2023-05-05T15:55:36.378Z,88504.03
2023-05-05T15:58:21.439Z,88505.06
2023-05-05T16:01:06.753Z,88497.22
2023-05-05T16:03:51.648Z,88507.34
2023-05-05T16:06:36.707Z,88504.59
2023-05-05T16:09:21.835Z,88509.41
2023-05-05T16:12:06.768Z,88509.50
2023-05-05T16:14:51.930Z,88517.78
2023-05-05T16:17:36.901Z,88520.97
2023-05-05T16:20:21.944Z,88528.66
2023-05-05T16:23:06.971Z,88528.16
2023-05-05T16:25:51.972Z,88538.28
2023-05-05T16:28:36.962Z,88549.94
2023-05-05T16:31:21.980Z,88548.44
2023-05-05T16:34:07.011Z,88532.47
2023-05-05T16:36:51.924Z,88537.31
2023-05-05T16:39:37.047Z,88534.47
2023-05-05T16:42:22.000Z,88527.03
2023-05-05T16:45:07.326Z,88524.53
2023-05-05T16:47:51.913Z,88527.19
2023-05-05T16:50:36.937Z,88517.44
2023-05-05T16:53:22.018Z,88521.50
2023-05-05T16:56:06.955Z,88534.56
2023-05-05T16:58:52.019Z,88534.16
2023-05-05T17:01:36.998Z,88532.91
2023-05-05T17:04:22.074Z,88537.09
2023-05-05T17:07:06.975Z,88530.50
2023-05-05T17:09:52.031Z,88529.72
2023-05-05T17:12:37.047Z,88533.88
2023-05-05T17:15:22.056Z,88533.03
2023-05-05T17:18:07.126Z,88544.09
2023-05-05T17:20:52.136Z,88536.97
2023-05-05T17:23:37.283Z,88540.63
2023-05-05T17:26:22.278Z,88541.44
2023-05-05T17:29:07.431Z,88536.97
2023-05-05T17:31:52.469Z,88540.66
2023-05-05T17:34:37.404Z,88549.41
2023-05-05T17:37:22.350Z,88546.53
2023-05-05T17:40:07.453Z,88553.97
2023-05-05T17:42:52.436Z,88556.41
2023-05-05T17:45:37.431Z,88556.53
2023-05-05T17:48:22.452Z,88553.41
2023-05-05T17:51:07.298Z,88562.66
2023-05-05T17:53:52.365Z,88567.97
2023-05-05T17:56:37.336Z,88569.31
2023-05-05T17:59:22.448Z,88571.38
2023-05-05T18:02:07.488Z,88568.13
2023-05-05T18:04:52.433Z,88571.53
2023-05-05T18:07:37.541Z,88576.25
2023-05-05T18:10:22.429Z,88583.72
2023-05-05T18:13:07.531Z,88584.03
2023-05-05T18:15:52.552Z,88588.25
2023-05-05T18:18:37.673Z,88595.06
2023-05-05T18:21:22.402Z,88590.59
2023-05-05T18:24:18.792Z,88591.81
2023-05-05T18:27:04.952Z,88611.81
2023-05-05T18:29:50.057Z,88607.28
2023-05-05T18:32:35.169Z,88608.69
2023-05-05T18:35:20.140Z,88603.28
2023-05-05T18:38:05.196Z,88605.81
2023-05-05T18:40:50.087Z,88609.91
2023-05-05T18:43:35.233Z,88601.31
2023-05-05T18:46:20.289Z,88606.78
2023-05-05T18:49:05.498Z,88612.78
2023-05-05T18:51:50.517Z,88611.50
2023-05-05T18:54:37.626Z,88610.38
2023-05-05T18:57:22.985Z,88616.94
2023-05-05T19:00:07.743Z,88623.78
2023-05-05T19:02:53.010Z,88625.31
2023-05-05T19:05:37.894Z,88621.97
2023-05-05T19:08:22.904Z,88624.78
2023-05-05T19:11:07.816Z,88633.41
2023-05-05T19:13:52.704Z,88639.81
2023-05-05T19:16:37.675Z,88642.31
2023-05-05T19:19:22.506Z,88636.22
2023-05-05T19:22:07.466Z,88645.25
2023-05-05T19:24:52.266Z,88639.41
2023-05-05T19:27:37.273Z,88644.81
2023-05-05T19:30:22.202Z,88647.44
2023-05-05T19:33:06.994Z,88647.56
2023-05-05T19:35:51.685Z,88645.59
2023-05-05T19:38:36.563Z,88647.28
2023-05-05T19:41:21.645Z,88651.03
2023-05-05T19:44:06.636Z,88652.94
2023-05-05T19:46:51.963Z,88655.56
2023-05-05T19:49:36.811Z,88650.41
2023-05-05T19:52:21.894Z,88655.28
2023-05-05T19:55:07.087Z,88657.06
2023-05-05T19:57:51.760Z,88654.31
2023-05-05T20:00:36.777Z,88658.72
2023-05-05T20:03:21.736Z,88662.63
2023-05-05T20:06:06.859Z,88657.47
2023-05-05T20:08:51.805Z,88661.38
2023-05-05T20:11:36.834Z,88664.84
2023-05-05T20:14:21.752Z,88662.22
2023-05-05T20:17:06.839Z,88670.94
2023-05-05T20:19:51.695Z,88672.34
2023-05-05T20:22:38.124Z,88675.09
2023-05-05T20:25:24.080Z,88670.84
2023-05-05T20:28:09.019Z,88677.34
2023-05-05T20:30:53.958Z,88672.06
2023-05-05T20:33:38.824Z,88672.63
2023-05-05T20:36:23.874Z,88674.84
2023-05-05T20:39:08.817Z,88675.94
2023-05-05T20:41:53.712Z,88680.66
2023-05-05T20:44:38.816Z,88676.25
2023-05-05T20:47:23.874Z,88670.03
2023-05-05T20:50:09.030Z,88672.09
2023-05-05T20:52:53.920Z,88679.03
2023-05-05T20:55:39.020Z,88676.94
2023-05-05T20:58:23.845Z,88680.41
2023-05-05T21:01:08.965Z,88683.72
2023-05-05T21:03:54.153Z,88685.09
2023-05-05T21:06:39.158Z,88675.22
2023-05-05T21:09:24.241Z,88676.34
2023-05-05T21:12:09.122Z,88682.00
2023-05-05T21:14:54.258Z,88680.34
2023-05-05T21:17:39.241Z,88673.78
2023-05-05T21:20:24.308Z,88673.34
2023-05-05T21:23:09.286Z,88671.94
2023-05-05T21:25:54.212Z,88669.69
2023-05-05T21:28:39.176Z,88665.38
2023-05-05T21:31:24.173Z,88662.16
2023-05-05T21:34:09.332Z,88660.31
2023-05-05T21:36:54.253Z,88667.47
2023-05-05T21:39:39.331Z,88661.06
2023-05-05T21:42:24.239Z,88669.03
2023-05-05T21:45:09.323Z,88659.72
2023-05-05T21:47:54.372Z,88653.97
2023-05-05T21:50:39.235Z,88654.94
2023-05-05T21:53:24.354Z,88652.53
2023-05-05T21:56:09.317Z,88647.66
2023-05-05T21:58:54.632Z,88647.66
2023-05-05T22:01:39.521Z,88645.03
2023-05-05T22:04:24.480Z,88647.16
2023-05-05T22:07:09.334Z,88641.88
2023-05-05T22:09:54.320Z,88647.16
2023-05-05T22:12:39.340Z,88638.69
2023-05-05T22:15:27.571Z,88636.63
2023-05-05T22:18:15.014Z,88638.94
2023-05-05T22:21:00.158Z,88641.56
2023-05-05T22:23:45.015Z,88643.34
2023-05-05T22:26:30.046Z,88636.69
2023-05-05T22:29:14.886Z,88631.28
2023-05-05T22:31:59.916Z,88625.88
2023-05-05T22:34:44.693Z,88632.38
2023-05-05T22:37:29.865Z,88621.69
2023-05-05T22:40:14.851Z,88625.00
2023-05-05T22:42:59.740Z,88623.09
2023-05-05T22:45:44.732Z,88612.97
2023-05-05T22:48:29.688Z,88615.59
2023-05-05T22:51:14.870Z,88619.63
2023-05-05T22:53:59.715Z,88610.00
2023-05-05T22:56:44.718Z,88613.91
2023-05-05T22:59:29.657Z,88619.84
2023-05-05T23:02:14.707Z,88609.31
2023-05-05T23:04:59.589Z,88613.50
2023-05-05T23:07:44.524Z,88628.44
2023-05-05T23:10:29.579Z,88624.81
2023-05-05T23:13:14.792Z,88618.69
2023-05-05T23:16:00.041Z,88620.63
2023-05-05T23:18:44.944Z,88626.88
2023-05-05T23:21:32.065Z,88620.31
2023-05-05T23:24:19.052Z,88627.03
2023-05-05T23:27:03.901Z,88624.56
2023-05-05T23:29:48.973Z,88613.75
2023-05-05T23:32:34.085Z,88624.47
2023-05-05T23:35:19.143Z,88616.22
2023-05-05T23:38:04.208Z,88615.97
2023-05-05T23:40:49.266Z,88614.22
2023-05-05T23:43:34.446Z,88614.91
2023-05-05T23:46:19.664Z,88612.25
2023-05-05T23:49:04.713Z,88596.50
2023-05-05T23:51:49.599Z,88602.59
2023-05-05T23:54:34.762Z,88597.47
2023-05-05T23:57:19.773Z,88594.31
